Time,TemperatureF,DewpointF,PressureIn,WindDirection,WindDirectionDegrees,WindSpeedMPH,WindSpeedGustMPH,Humidity,HourlyPrecipIn,Conditions,Clouds,dailyrainin,SolarRadiationWatts/m^2,SoftwareType,DateUTC
2013-05-29 00:01:00,57.3,55.0,30.03,ESE,113,14.0,14.0,92,0.00,RA,,0.00,0.0,WeatherDisplay:10.37,2013-05-29 04:01:00,
2013-05-29 00:02:00,57.3,55.0,30.03,ESE,113,14.0,14.0,92,0.00,RA,,0.00,0.0,WeatherDisplay:10.37,2013-05-29 04:02:00,
2013-05-29 00:03:00,57.3,55.0,30.03,ESE,109,13.8,13.8,92,0.00,RA,,0.00,0.0,WeatherDisplay:10.37,2013-05-29 04:03:00,
2013-05-29 00:04:00,57.2,54.9,30.03,ESE,122,11.5,11.5,92,0.00,RA,,0.00,0.0,WeatherDisplay:10.37,2013-05-29 04:04:00,
2013-05-29 00:09:00,57.2,54.9,30.03,SE,146,11.5,11.5,92,0.00,RA,,0.01,0.0,WeatherDisplay:10.37,2013-05-29 04:09:00,
2013-05-29 00:14:00,57.2,54.9,30.02,East,90,6.0,6.0,92,0.05,-RA,,0.01,0.0,WeatherDisplay:10.37,2013-05-29 04:14:00,
2013-05-29 00:19:00,57.2,55.2,30.02,East,95,8.0,8.0,93,0.04,-RA,,0.01,0.0,WeatherDisplay:10.37,2013-05-29 04:19:00,
2013-05-29 00:24:00,57.2,55.2,30.02,ESE,120,1.2,1.2,93,0.05,-RA,,0.02,0.0,WeatherDisplay:10.37,2013-05-29 04:24:00,
2013-05-29 00:29:00,57.2,55.2,30.03,NE,55,5.0,5.0,93,0.04,-RA,,0.02,0.0,WeatherDisplay:10.37,2013-05-29 04:29:00,
2013-05-29 00:34:00,57.2,55.2,30.03,East,87,3.5,3.5,93,0.04,-RA,,0.02,0.0,WeatherDisplay:10.37,2013-05-29 04:34:00,
2013-05-29 00:39:00,57.2,55.2,30.03,NE,54,2.3,2.3,93,0.03,-RA,,0.02,0.0,WeatherDisplay:10.37,2013-05-29 04:39:00,
2013-05-29 00:44:00,57.2,55.2,30.03,ENE,57,3.5,3.5,93,0.03,-RA,,0.02,0.0,WeatherDisplay:10.37,2013-05-29 04:44:00,
2013-05-29 00:49:00,57.2,55.2,30.03,ENE,77,4.0,4.0,93,0.03,-RA,,0.02,0.0,WeatherDisplay:10.37,2013-05-29 04:49:00,
2013-05-29 00:54:00,57.2,55.2,30.03,ENE,78,6.9,6.9,93,0.03,-RA,,0.02,0.0,WeatherDisplay:10.37,2013-05-29 04:54:00,
2013-05-29 00:59:00,57.2,55.2,30.02,East,96,5.0,5.0,93,0.02,-RA,,0.02,0.0,WeatherDisplay:10.37,2013-05-29 04:59:00,
2013-05-29 01:04:00,57.2,55.2,30.02,East,92,6.0,6.0,93,0.02,-RA,,0.02,0.0,WeatherDisplay:10.37,2013-05-29 05:04:00,
2013-05-29 01:09:00,57.0,55.0,30.02,East,86,5.0,5.0,93,0.01,-RA,,0.02,0.0,WeatherDisplay:10.37,2013-05-29 05:09:00,
2013-05-29 01:14:00,57.0,55.0,30.01,East,95,3.5,3.5,93,0.01,OVC,,0.02,0.0,WeatherDisplay:10.37,2013-05-29 05:14:00,
2013-05-29 01:19:00,57.0,55.3,30.01,East,80,6.0,6.0,94,0.01,OVC,,0.02,0.0,WeatherDisplay:10.37,2013-05-29 05:19:00,
2013-05-29 01:24:00,57.0,55.3,30.01,East,92,3.5,3.5,94,0.00,OVC,,0.02,0.0,WeatherDisplay:10.37,2013-05-29 05:24:00,
2013-05-29 01:29:00,57.0,55.3,30.01,East,90,5.0,5.0,94,0.00,OVC,,0.02,0.0,WeatherDisplay:10.37,2013-05-29 05:29:00,
2013-05-29 01:34:00,57.2,55.5,30.01,ENE,73,8.1,8.1,94,0.00,OVC,,0.02,0.0,WeatherDisplay:10.37,2013-05-29 05:34:00,
2013-05-29 01:39:00,57.0,55.3,30.01,ENE,71,5.8,5.8,94,0.00,OVC,,0.02,0.0,WeatherDisplay:10.37,2013-05-29 05:39:00,
2013-05-29 01:44:00,57.0,55.3,30.01,East,90,7.0,7.0,94,0.00,OVC,,0.02,0.0,WeatherDisplay:10.37,2013-05-29 05:44:00,
2013-05-29 01:49:00,57.0,55.3,30.01,East,87,3.5,3.5,94,0.00,OVC,,0.02,0.0,WeatherDisplay:10.37,2013-05-29 05:49:00,
2013-05-29 01:54:00,56.9,55.2,30.01,East,96,4.6,4.6,94,0.00,OVC,,0.02,0.0,WeatherDisplay:10.37,2013-05-29 05:54:00,
2013-05-29 01:59:00,56.7,55.0,30.01,East,96,6.0,6.0,94,0.00,OVC,,0.02,0.0,WeatherDisplay:10.37,2013-05-29 05:59:00,
2013-05-29 02:04:00,56.7,55.0,30.01,ENE,57,3.5,3.5,94,0.00,OVC,,0.02,0.0,WeatherDisplay:10.37,2013-05-29 06:04:00,
2013-05-29 02:09:00,56.7,55.0,30.01,ENE,72,4.6,4.6,94,0.00,OVC,,0.02,0.0,WeatherDisplay:10.37,2013-05-29 06:09:00,
2013-05-29 02:14:00,56.7,55.0,30.01,East,92,3.5,3.5,94,0.00,BKN,,0.02,0.0,WeatherDisplay:10.37,2013-05-29 06:14:00,
2013-05-29 02:19:00,56.6,54.9,30.01,East,93,3.5,3.5,94,0.00,BKN,,0.02,0.0,WeatherDisplay:10.37,2013-05-29 06:19:00,
2013-05-29 02:24:00,56.6,54.9,30.01,East,89,4.6,4.6,94,0.00,BKN,,0.02,0.0,WeatherDisplay:10.37,2013-05-29 06:24:00,
2013-05-29 02:29:00,56.6,54.9,30.00,East,86,4.0,4.0,94,0.00,BKN,,0.02,0.0,WeatherDisplay:10.37,2013-05-29 06:29:00,
2013-05-29 02:34:00,56.6,54.9,30.00,East,87,6.0,6.0,94,0.00,BKN,,0.02,0.0,WeatherDisplay:10.37,2013-05-29 06:34:00,
2013-05-29 02:39:00,56.6,54.9,30.00,East,85,6.9,6.9,94,0.00,BKN,,0.02,0.0,WeatherDisplay:10.37,2013-05-29 06:39:00,
2013-05-29 02:44:00,56.5,54.8,30.00,ESE,104,9.0,9.0,94,0.00,BKN,,0.02,0.0,WeatherDisplay:10.37,2013-05-29 06:44:00,
2013-05-29 02:49:00,56.6,54.9,30.00,East,86,9.2,9.2,94,0.00,BKN,,0.02,0.0,WeatherDisplay:10.37,2013-05-29 06:49:00,
2013-05-29 02:54:00,56.6,54.9,30.00,ESE,113,4.0,4.0,94,0.00,BKN,,0.02,0.0,WeatherDisplay:10.37,2013-05-29 06:54:00,
2013-05-29 02:59:00,56.6,54.9,29.99,East,83,5.0,5.0,94,0.00,BKN,,0.02,0.0,WeatherDisplay:10.37,2013-05-29 06:59:00,
2013-05-29 03:04:00,56.6,54.9,29.99,East,87,6.0,6.0,94,0.00,BKN,,0.02,0.0,WeatherDisplay:10.37,2013-05-29 07:04:00,
2013-05-29 03:09:00,56.6,54.9,29.99,East,85,6.0,6.0,94,0.00,BKN,,0.02,0.0,WeatherDisplay:10.37,2013-05-29 07:09:00,
2013-05-29 03:14:00,56.7,55.0,29.99,East,79,6.9,6.9,94,0.00,OVC,,0.02,0.0,WeatherDisplay:10.37,2013-05-29 07:14:00,
2013-05-29 03:19:00,56.7,55.0,29.99,East,94,5.8,5.8,94,0.00,OVC,,0.02,0.0,WeatherDisplay:10.37,2013-05-29 07:19:00,
2013-05-29 03:24:00,56.7,55.0,29.99,East,87,4.0,4.0,94,0.00,OVC,,0.02,0.0,WeatherDisplay:10.37,2013-05-29 07:24:00,
2013-05-29 03:29:00,56.7,55.0,29.99,East,87,1.0,0.0,94,0.00,OVC,,0.02,0.0,WeatherDisplay:10.37,2013-05-29 07:29:00,
2013-05-29 03:34:00,56.7,55.0,29.99,East,91,4.0,4.0,94,0.00,OVC,,0.02,0.0,WeatherDisplay:10.37,2013-05-29 07:34:00,
2013-05-29 03:39:00,56.7,55.0,29.99,East,98,2.3,2.3,94,0.00,OVC,,0.02,0.0,WeatherDisplay:10.37,2013-05-29 07:39:00,
2013-05-29 03:44:00,56.7,55.0,29.99,East,98,3.5,3.5,94,0.00,OVC,,0.02,0.0,WeatherDisplay:10.37,2013-05-29 07:44:00,
2013-05-29 03:49:00,56.7,55.0,29.99,ENE,67,1.0,0.0,94,0.00,OVC,,0.02,0.0,WeatherDisplay:10.37,2013-05-29 07:49:00,
2013-05-29 03:54:00,56.9,55.2,29.99,SE,125,4.0,4.0,94,0.00,OVC,,0.02,0.0,WeatherDisplay:10.37,2013-05-29 07:54:00,
2013-05-29 03:59:00,56.9,55.2,29.99,East,101,4.0,4.0,94,0.00,OVC,,0.02,0.0,WeatherDisplay:10.37,2013-05-29 07:59:00,
2013-05-29 04:04:00,56.7,55.0,29.99,SE,126,4.0,4.0,94,0.00,OVC,,0.02,0.0,WeatherDisplay:10.37,2013-05-29 08:04:00,
2013-05-29 04:09:00,56.7,55.0,29.99,East,93,6.0,6.0,94,0.00,OVC,,0.02,0.0,WeatherDisplay:10.37,2013-05-29 08:09:00,
2013-05-29 04:14:00,56.7,55.0,29.99,SE,137,5.0,5.0,94,0.00,OVC,,0.02,0.0,WeatherDisplay:10.37,2013-05-29 08:14:00,
2013-05-29 04:19:00,56.7,55.0,29.99,East,86,3.5,3.5,94,0.00,OVC,,0.02,0.0,WeatherDisplay:10.37,2013-05-29 08:19:00,
2013-05-29 04:24:00,56.7,55.3,29.99,ESE,110,5.0,5.0,95,0.00,OVC,,0.02,0.0,WeatherDisplay:10.37,2013-05-29 08:24:00,
2013-05-29 04:29:00,56.7,55.3,30.00,ESE,114,4.0,4.0,95,0.00,OVC,,0.02,0.0,WeatherDisplay:10.37,2013-05-29 08:29:00,
2013-05-29 04:34:00,56.7,55.3,30.00,SE,135,5.0,5.0,95,0.01,RA,,0.03,0.0,WeatherDisplay:10.37,2013-05-29 08:34:00,
2013-05-29 04:39:00,56.7,55.3,30.00,SE,133,3.5,3.5,95,0.01,RA,,0.03,0.0,WeatherDisplay:10.37,2013-05-29 08:39:00,
2013-05-29 04:44:00,56.9,55.5,30.00,ESE,114,4.0,4.0,95,0.01,OVC,,0.03,0.0,WeatherDisplay:10.37,2013-05-29 08:44:00,
2013-05-29 04:49:00,56.9,55.5,30.00,ESE,115,1.2,0.0,95,0.01,OVC,,0.03,0.0,WeatherDisplay:10.37,2013-05-29 08:49:00,
2013-05-29 04:55:00,56.9,55.5,30.00,ESE,115,0.0,0.0,95,0.01,OVC,,0.04,0.0,WeatherDisplay:10.37,2013-05-29 08:55:00,
2013-05-29 05:00:00,56.9,55.5,30.00,ESE,114,2.3,2.3,95,0.02,RA,,0.04,0.0,WeatherDisplay:10.37,2013-05-29 09:00:00,
2013-05-29 05:05:00,57.0,55.6,30.00,ESE,107,3.5,3.5,95,0.04,-RA,,0.06,0.0,WeatherDisplay:10.37,2013-05-29 09:05:00,
2013-05-29 05:10:00,57.2,55.8,29.99,ESE,106,6.0,6.0,95,0.06,-RA,,0.10,0.0,WeatherDisplay:10.37,2013-05-29 09:10:00,
2013-05-29 05:15:00,57.2,55.8,29.99,SE,125,4.0,4.0,95,0.08,-RA,,0.11,0.0,WeatherDisplay:10.37,2013-05-29 09:15:00,
2013-05-29 05:20:00,57.3,55.9,29.99,SE,137,4.0,4.0,95,0.10,-RA,,0.12,0.0,WeatherDisplay:10.37,2013-05-29 09:20:00,
2013-05-29 05:25:00,57.5,56.1,29.99,SE,128,3.0,3.0,95,0.10,RA,,0.13,0.0,WeatherDisplay:10.37,2013-05-29 09:25:00,
2013-05-29 05:30:00,57.5,56.1,29.99,SE,129,4.0,4.0,95,0.11,RA,,0.13,0.0,WeatherDisplay:10.37,2013-05-29 09:30:00,
2013-05-29 05:35:00,57.6,56.2,29.99,SE,132,3.5,3.5,95,0.11,RA,,0.14,0.0,WeatherDisplay:10.37,2013-05-29 09:35:00,
2013-05-29 05:40:00,57.6,56.2,29.99,ESE,112,5.0,5.0,95,0.11,RA,,0.14,0.0,WeatherDisplay:10.37,2013-05-29 09:40:00,
2013-05-29 05:45:00,57.6,56.2,29.99,ESE,123,3.5,3.5,95,0.11, +RA,,0.14,0.0,WeatherDisplay:10.37,2013-05-29 09:45:00,
2013-05-29 05:50:00,57.6,56.2,29.99,SE,144,3.5,3.5,95,0.11, +RA,,0.14,0.0,WeatherDisplay:10.37,2013-05-29 09:50:00,
2013-05-29 05:55:00,57.6,56.2,30.00,SE,144,3.5,3.5,95,0.15, +RA,,0.18,0.0,WeatherDisplay:10.37,2013-05-29 09:55:00,
2013-05-29 06:00:00,57.8,56.4,30.00,SE,136,1.2,1.2,95,0.15, +RA,,0.19,0.0,WeatherDisplay:10.37,2013-05-29 10:00:00,
2013-05-29 06:05:00,57.8,56.4,30.00,SE,136,1.2,1.2,95,0.15, +RA,,0.21,0.0,WeatherDisplay:10.37,2013-05-29 10:05:00,
2013-05-29 06:10:00,57.8,56.4,30.00,ESE,114,4.0,4.0,95,0.14, +RA,,0.22,0.0,WeatherDisplay:10.37,2013-05-29 10:10:00,
2013-05-29 06:15:00,58.0,56.6,29.99,SE,131,3.5,3.5,95,0.13, +RA,,0.23,7.0,WeatherDisplay:10.37,2013-05-29 10:15:00,
2013-05-29 06:20:00,58.0,56.9,29.99,East,99,1.0,0.0,96,0.12, +RA,,0.23,7.0,WeatherDisplay:10.37,2013-05-29 10:20:00,
2013-05-29 06:25:00,58.0,56.9,29.99,ESE,104,4.0,4.0,96,0.12, +RA,,0.23,9.0,WeatherDisplay:10.37,2013-05-29 10:25:00,
2013-05-29 06:30:00,58.1,57.0,29.99,ESE,109,5.8,5.8,96,0.11, +RA,,0.23,5.0,WeatherDisplay:10.37,2013-05-29 10:30:00,
2013-05-29 06:35:00,58.1,57.0,29.99,ESE,116,4.6,4.6,96,0.11,RA,,0.24,5.0,WeatherDisplay:10.37,2013-05-29 10:35:00,
2013-05-29 06:40:00,58.1,57.0,29.99,SE,133,3.5,3.5,96,0.11,RA,,0.24,0.0,WeatherDisplay:10.37,2013-05-29 10:40:00,
2013-05-29 06:45:00,58.3,57.2,30.00,SE,133,3.5,3.5,96,0.12,RA,,0.25,5.0,WeatherDisplay:10.37,2013-05-29 10:45:00,
2013-05-29 06:50:00,58.3,57.2,30.00,ESE,120,3.5,3.5,96,0.12,RA,,0.26,5.0,WeatherDisplay:10.37,2013-05-29 10:50:00,
2013-05-29 06:55:00,58.3,57.2,30.00,ESE,120,3.0,3.0,96,0.11,RA,,0.28,5.0,WeatherDisplay:10.37,2013-05-29 10:55:00,
2013-05-29 07:00:00,58.4,57.3,30.00,SE,124,4.0,4.0,96,0.11,RA,,0.30,0.0,WeatherDisplay:10.37,2013-05-29 11:00:00,
2013-05-29 07:05:00,58.4,57.3,30.00,ESE,123,6.0,6.0,96,0.11,RA,,0.33,7.0,WeatherDisplay:10.37,2013-05-29 11:05:00,
2013-05-29 07:10:00,58.4,57.3,30.00,SE,135,5.0,5.0,96,0.12,RA,,0.35,5.0,WeatherDisplay:10.37,2013-05-29 11:10:00,
2013-05-29 07:15:00,58.4,57.3,30.00,ESE,111,4.0,4.0,96,0.13, +RA,,0.36,5.0,WeatherDisplay:10.37,2013-05-29 11:15:00,
2013-05-29 07:20:00,58.4,57.3,30.00,ESE,116,4.0,4.0,96,0.14, +RA,,0.37,11.0,WeatherDisplay:10.37,2013-05-29 11:20:00,
2013-05-29 07:25:00,58.6,57.5,30.00,SE,130,3.5,0.0,96,0.14, +RA,,0.37,12.0,WeatherDisplay:10.37,2013-05-29 11:25:00,
2013-05-29 07:30:00,58.6,57.5,30.00,ESE,111,3.5,3.5,96,0.14, +RA,,0.37,11.0,WeatherDisplay:10.37,2013-05-29 11:30:00,
2013-05-29 07:35:00,58.7,57.6,30.00,ESE,110,1.2,1.2,96,0.13,OVC,,0.37,14.0,WeatherDisplay:10.37,2013-05-29 11:35:00,
2013-05-29 07:40:00,58.9,57.8,30.01,ESE,110,0.0,0.0,96,0.13,OVC,,0.37,33.0,WeatherDisplay:10.37,2013-05-29 11:40:00,
2013-05-29 07:45:00,59.0,57.9,30.01,ESE,110,0.0,0.0,96,0.12,OVC,,0.37,40.0,WeatherDisplay:10.37,2013-05-29 11:45:00,
2013-05-29 07:50:00,59.2,58.1,30.01,ESE,109,3.5,3.5,96,0.12,RA,,0.38,37.0,WeatherDisplay:10.37,2013-05-29 11:50:00,
2013-05-29 07:55:00,59.3,58.2,30.00,ESE,112,4.0,4.0,96,0.11,OVC,,0.38,37.0,WeatherDisplay:10.37,2013-05-29 11:55:00,
2013-05-29 08:00:00,59.3,58.2,30.00,ESE,113,3.5,3.5,96,0.08,OVC,,0.38,51.0,WeatherDisplay:10.37,2013-05-29 12:00:00,
2013-05-29 08:05:00,59.5,58.4,30.00,East,80,4.0,4.0,96,0.07,RA,,0.39,51.0,WeatherDisplay:10.37,2013-05-29 12:05:00,
2013-05-29 08:10:00,59.6,58.5,29.98,ESE,110,3.5,3.5,96,0.06,RA,,0.40,56.0,WeatherDisplay:10.37,2013-05-29 12:10:00,
2013-05-29 08:15:00,59.8,58.7,29.98,ESE,116,6.0,6.0,96,0.04,-RA,,0.40,69.0,WeatherDisplay:10.37,2013-05-29 12:15:00,
2013-05-29 08:20:00,59.8,58.7,29.98,ESE,123,4.0,4.0,96,0.03,-RA,,0.40,105.0,WeatherDisplay:10.37,2013-05-29 12:20:00,
2013-05-29 08:25:00,60.1,59.0,30.00,SSE,158,3.5,3.5,96,0.04,-RA,,0.41,146.0,WeatherDisplay:10.37,2013-05-29 12:25:00,
2013-05-29 08:30:00,60.4,59.3,30.00,East,87,3.5,3.5,96,0.04,-RA,,0.41,156.0,WeatherDisplay:10.37,2013-05-29 12:30:00,
2013-05-29 08:35:00,60.7,59.6,30.00,East,86,1.2,0.0,96,0.04,-RA,,0.41,151.0,WeatherDisplay:10.37,2013-05-29 12:35:00,
2013-05-29 08:40:00,61.0,59.9,30.00,ESE,103,4.0,4.0,96,0.04,-RA,,0.41,144.0,WeatherDisplay:10.37,2013-05-29 12:40:00,
2013-05-29 08:45:00,61.0,59.9,30.00,SE,125,4.6,4.6,96,0.03,-RA,,0.41,100.0,WeatherDisplay:10.37,2013-05-29 12:45:00,
2013-05-29 08:50:00,61.0,59.9,30.00,SE,133,5.0,5.0,96,0.03,-RA,,0.41,86.0,WeatherDisplay:10.37,2013-05-29 12:50:00,
2013-05-29 08:55:00,61.0,59.9,30.00,ESE,106,4.0,4.0,96,0.03,-RA,,0.41,58.0,WeatherDisplay:10.37,2013-05-29 12:55:00,
2013-05-29 09:00:00,61.0,59.9,30.01,ESE,106,1.2,1.2,96,0.03,-RA,,0.41,56.0,WeatherDisplay:10.37,2013-05-29 13:00:00,
2013-05-29 09:05:00,61.0,59.9,30.01,SE,137,4.0,4.0,96,0.02,-RA,,0.41,35.0,WeatherDisplay:10.37,2013-05-29 13:05:00,
2013-05-29 09:10:00,60.9,59.8,30.01,ESE,118,5.8,5.8,96,0.01,-RA,,0.41,60.0,WeatherDisplay:10.37,2013-05-29 13:10:00,
2013-05-29 09:15:00,60.9,59.8,30.00,SE,130,5.0,5.0,96,0.01,-RA,,0.41,51.0,WeatherDisplay:10.37,2013-05-29 13:15:00,
2013-05-29 09:20:00,60.7,59.6,30.00,SSE,153,9.2,9.2,96,0.02,-RA,,0.42,39.0,WeatherDisplay:10.37,2013-05-29 13:20:00,
2013-05-29 09:25:00,60.7,59.6,30.00,SE,135,5.0,5.0,96,0.02,-RA,,0.43,49.0,WeatherDisplay:10.37,2013-05-29 13:25:00,
2013-05-29 09:30:00,60.7,59.6,29.98,ESE,119,6.0,6.0,96,0.03,-RA,,0.45,127.0,WeatherDisplay:10.37,2013-05-29 13:30:00,
2013-05-29 09:35:00,60.9,59.8,29.98,SE,143,3.0,3.0,96,0.04,-RA,,0.46,185.0,WeatherDisplay:10.37,2013-05-29 13:35:00,
2013-05-29 09:40:00,61.2,60.1,29.98,ESE,108,1.0,1.0,96,0.04,-RA,,0.46,163.0,WeatherDisplay:10.37,2013-05-29 13:40:00,
2013-05-29 09:45:00,61.5,60.3,29.98,SE,130,5.0,5.0,96,0.04,-RA,,0.46,220.0,WeatherDisplay:10.37,2013-05-29 13:45:00,
2013-05-29 09:50:00,62.4,61.2,29.98,WSW,246,4.6,4.6,96,0.04,-RA,,0.46,322.0,WeatherDisplay:10.37,2013-05-29 13:50:00,
2013-05-29 09:55:00,63.7,62.5,29.98,SE,130,5.0,5.0,96,0.04,-RA,,0.46,686.0,WeatherDisplay:10.37,2013-05-29 13:55:00,
2013-05-29 10:00:00,64.2,63.0,29.98,SSE,158,3.5,3.5,96,0.04,-RA,,0.46,362.0,WeatherDisplay:10.37,2013-05-29 14:00:00,
2013-05-29 10:05:00,64.3,63.1,29.98,SSE,161,3.5,3.5,96,0.04,OVC,,0.46,348.0,WeatherDisplay:10.37,2013-05-29 14:05:00,
2013-05-29 10:10:00,64.8,63.6,29.99,SSE,149,4.0,4.0,96,0.04,OVC,,0.46,401.0,WeatherDisplay:10.37,2013-05-29 14:10:00,
2013-05-29 10:15:00,65.5,64.3,29.99,SE,135,4.0,4.0,96,0.04,OVC,,0.46,675.0,WeatherDisplay:10.37,2013-05-29 14:15:00,
2013-05-29 10:20:00,66.1,64.9,29.99,SE,138,3.5,3.5,96,0.03,OVC,,0.46,378.0,WeatherDisplay:10.37,2013-05-29 14:20:00,
2013-05-29 10:25:00,67.1,65.9,29.98,SE,137,1.2,1.2,96,0.02,OVC,,0.46,443.0,WeatherDisplay:10.37,2013-05-29 14:25:00,
2013-05-29 10:30:00,67.8,66.6,29.98,ESE,120,6.0,6.0,96,0.01,OVC,,0.46,381.0,WeatherDisplay:10.37,2013-05-29 14:30:00,
2013-05-29 10:35:00,67.8,66.6,29.98,SE,136,4.6,4.6,96,0.01,BKN,,0.46,385.0,WeatherDisplay:10.37,2013-05-29 14:35:00,
2013-05-29 10:40:00,69.1,67.9,29.96,ESE,120,3.5,3.5,96,0.00,BKN,,0.46,759.0,WeatherDisplay:10.37,2013-05-29 14:40:00,
2013-05-29 10:45:00,69.4,67.9,29.96,SE,141,9.2,9.2,95,0.00,BKN,,0.46,724.0,WeatherDisplay:10.37,2013-05-29 14:45:00,
2013-05-29 10:50:00,69.8,68.3,29.96,SE,139,5.0,5.0,95,0.00,BKN,,0.46,756.0,WeatherDisplay:10.37,2013-05-29 14:50:00,
2013-05-29 10:55:00,70.4,68.6,29.96,SE,142,7.0,7.0,94,0.00,BKN,,0.46,626.0,WeatherDisplay:10.37,2013-05-29 14:55:00,
2013-05-29 11:00:00,70.8,68.0,29.96,SSE,158,10.0,10.0,91,0.00,BKN,,0.46,775.0,WeatherDisplay:10.37,2013-05-29 15:00:00,
2013-05-29 11:05:00,71.5,68.1,29.96,SE,129,6.0,6.0,89,0.00,BKN,,0.46,814.0,WeatherDisplay:10.37,2013-05-29 15:05:00,
2013-05-29 11:10:00,71.8,67.0,29.96,SSW,213,4.0,4.0,85,0.00,BKN,,0.46,425.0,WeatherDisplay:10.37,2013-05-29 15:10:00,
2013-05-29 11:15:00,72.1,67.0,29.96,South,181,5.0,5.0,84,0.00,FEW,,0.46,461.0,WeatherDisplay:10.37,2013-05-29 15:15:00,
2013-05-29 11:20:00,72.8,67.3,29.96,SSE,154,8.1,8.1,83,0.00,FEW,,0.46,524.0,WeatherDisplay:10.37,2013-05-29 15:20:00,
2013-05-29 11:25:00,73.5,67.3,29.96,SW,231,3.5,3.5,81,0.00,FEW,,0.46,483.0,WeatherDisplay:10.37,2013-05-29 15:25:00,
2013-05-29 11:30:00,74.0,67.8,29.96,SE,125,0.0,0.0,81,0.00,FEW,,0.46,320.0,WeatherDisplay:10.37,2013-05-29 15:30:00,
2013-05-29 11:35:00,74.2,66.9,29.96,SE,132,3.0,3.0,78,0.00,FEW,,0.46,327.0,WeatherDisplay:10.37,2013-05-29 15:35:00,
2013-05-29 11:40:00,74.2,67.6,29.96,South,191,4.6,4.6,80,0.00,FEW,,0.46,438.0,WeatherDisplay:10.37,2013-05-29 15:40:00,
2013-05-29 11:45:00,74.4,67.8,29.96,SSE,155,1.2,1.2,80,0.00,FEW,,0.46,466.0,WeatherDisplay:10.37,2013-05-29 15:45:00,
2013-05-29 11:50:00,75.1,68.5,29.96,SE,137,3.0,3.0,80,0.00,FEW,,0.46,812.0,WeatherDisplay:10.37,2013-05-29 15:50:00,
2013-05-29 11:55:00,75.8,68.1,29.96,SSE,156,2.3,2.3,77,0.00,FEW,,0.46,462.0,WeatherDisplay:10.37,2013-05-29 15:55:00,
2013-05-29 12:00:00,76.0,67.5,29.96,SW,214,4.6,4.6,75,0.00,FEW,,0.46,438.0,WeatherDisplay:10.37,2013-05-29 16:00:00,
2013-05-29 12:05:00,76.3,67.4,29.96,SE,143,3.5,3.5,74,0.00,FEW,,0.46,735.0,WeatherDisplay:10.37,2013-05-29 16:05:00,
2013-05-29 12:10:00,76.8,67.5,29.95,South,170,4.6,4.6,73,0.00,FEW,,0.46,563.0,WeatherDisplay:10.37,2013-05-29 16:10:00,
2013-05-29 12:16:00,77.4,68.1,29.95,South,180,7.0,7.0,73,0.00,OVC,,0.46,513.0,WeatherDisplay:10.37,2013-05-29 16:16:00,
2013-05-29 12:21:00,77.4,67.7,29.95,SW,234,2.0,2.0,72,0.00,OVC,,0.46,584.0,WeatherDisplay:10.37,2013-05-29 16:21:00,
2013-05-29 12:26:00,77.7,66.7,29.95,WNW,293,6.0,6.0,69,0.00,OVC,,0.46,972.0,WeatherDisplay:10.37,2013-05-29 16:26:00,
2013-05-29 12:31:00,77.9,67.3,29.95,WSW,239,12.0,12.0,70,0.00,OVC,,0.46,1007.0,WeatherDisplay:10.37,2013-05-29 16:31:00,
2013-05-29 12:36:00,78.5,67.9,29.95,SW,224,6.0,6.0,70,0.00,OVC,,0.46,503.0,WeatherDisplay:10.37,2013-05-29 16:36:00,
2013-05-29 12:41:00,78.5,66.2,29.95,SSW,213,12.0,12.0,66,0.00,OVC,,0.46,911.0,WeatherDisplay:10.37,2013-05-29 16:41:00,
2013-05-29 12:46:00,78.5,67.1,29.95,SSW,207,11.0,11.0,68,0.00,OVC,,0.46,956.0,WeatherDisplay:10.37,2013-05-29 16:46:00,
2013-05-29 12:51:00,78.6,66.7,29.95,SSW,206,12.0,12.0,67,0.00,OVC,,0.46,466.0,WeatherDisplay:10.37,2013-05-29 16:51:00,
2013-05-29 12:56:00,79.2,67.7,29.95,WNW,293,10.4,10.4,68,0.00,OVC,,0.46,983.0,WeatherDisplay:10.37,2013-05-29 16:56:00,
2013-05-29 13:01:00,79.6,66.8,29.95,SSW,198,7.0,7.0,65,0.00,OVC,,0.46,951.0,WeatherDisplay:10.37,2013-05-29 17:01:00,
2013-05-29 13:06:00,79.8,67.9,29.95,SW,236,11.0,11.0,67,0.00,SCT,,0.46,909.0,WeatherDisplay:10.37,2013-05-29 17:06:00,
2013-05-29 13:11:00,79.8,66.5,29.95,SW,225,9.0,9.0,64,0.00,SCT,,0.46,350.0,WeatherDisplay:10.37,2013-05-29 17:11:00,
2013-05-29 13:16:00,79.8,66.5,29.95,SW,227,10.4,10.4,64,0.00,SCT,,0.46,1113.0,WeatherDisplay:10.37,2013-05-29 17:16:00,
2013-05-29 13:21:00,79.8,67.0,29.95,WNW,301,10.4,10.4,65,0.00,SCT,,0.46,396.0,WeatherDisplay:10.37,2013-05-29 17:21:00,
2013-05-29 13:26:00,79.8,67.0,29.95,West,278,10.0,10.0,65,0.00,SCT,,0.46,1053.0,WeatherDisplay:10.37,2013-05-29 17:26:00,
2013-05-29 13:31:00,80.1,67.3,29.95,WSW,237,7.0,7.0,65,0.00,SCT,,0.46,946.0,WeatherDisplay:10.37,2013-05-29 17:31:00,
2013-05-29 13:36:00,80.1,66.4,29.95,SW,214,16.0,16.0,63,0.00,SCT,,0.46,930.0,WeatherDisplay:10.37,2013-05-29 17:36:00,
2013-05-29 13:41:00,80.3,67.5,29.95,WSW,251,13.0,13.0,65,0.00,SCT,,0.46,930.0,WeatherDisplay:10.37,2013-05-29 17:41:00,
2013-05-29 13:46:00,80.5,66.3,29.95,West,281,9.2,9.2,62,0.00,SCT,,0.46,353.0,WeatherDisplay:10.37,2013-05-29 17:46:00,
2013-05-29 13:51:00,80.3,66.1,29.95,WSW,250,11.0,11.0,62,0.00,SCT,,0.46,422.0,WeatherDisplay:10.37,2013-05-29 17:51:00,
2013-05-29 13:56:00,80.1,65.9,29.95,West,262,15.0,15.0,62,0.00,SCT,,0.46,441.0,WeatherDisplay:10.37,2013-05-29 17:56:00,
2013-05-29 14:01:00,79.9,65.7,29.95,West,265,10.4,10.4,62,0.00,SCT,,0.46,352.0,WeatherDisplay:10.37,2013-05-29 18:01:00,
2013-05-29 14:06:00,79.9,66.2,29.95,NW,313,6.9,6.9,63,0.00,BKN,,0.46,1088.0,WeatherDisplay:10.37,2013-05-29 18:06:00,
2013-05-29 14:11:00,80.1,65.9,29.95,West,281,5.8,5.8,62,0.00,BKN,,0.46,218.0,WeatherDisplay:10.37,2013-05-29 18:11:00,
2013-05-29 14:16:00,80.1,65.9,29.95,NW,307,12.0,12.0,62,0.00,BKN,,0.46,244.0,WeatherDisplay:10.37,2013-05-29 18:16:00,
2013-05-29 14:21:00,79.9,66.6,29.95,WSW,246,7.0,7.0,64,0.00,BKN,,0.46,241.0,WeatherDisplay:10.37,2013-05-29 18:21:00,
2013-05-29 14:26:00,79.9,66.6,29.95,NW,306,7.0,7.0,64,0.00,BKN,,0.46,167.0,WeatherDisplay:10.37,2013-05-29 18:26:00,
2013-05-29 14:31:00,79.8,66.5,29.95,West,270,3.5,0.0,64,0.00,BKN,,0.46,102.0,WeatherDisplay:10.37,2013-05-29 18:31:00,
2013-05-29 14:36:00,79.4,67.5,29.95,West,279,3.5,3.5,67,0.00,BKN,,0.46,239.0,WeatherDisplay:10.37,2013-05-29 18:36:00,
2013-05-29 14:41:00,79.0,66.2,29.95,WNW,282,3.5,3.5,65,0.00,BKN,,0.46,320.0,WeatherDisplay:10.37,2013-05-29 18:41:00,
2013-05-29 14:46:00,79.2,68.6,29.95,WSW,252,4.0,4.0,70,0.00,BKN,,0.46,311.0,WeatherDisplay:10.37,2013-05-29 18:46:00,
2013-05-29 14:51:00,79.4,67.5,29.95,WNW,289,4.0,4.0,67,0.00,BKN,,0.46,466.0,WeatherDisplay:10.37,2013-05-29 18:51:00,
2013-05-29 14:56:00,80.1,67.3,29.95,West,281,6.0,6.0,65,0.00,BKN,,0.46,408.0,WeatherDisplay:10.37,2013-05-29 18:56:00,
2013-05-29 15:01:00,80.5,67.6,29.95,West,278,4.0,4.0,65,0.00,BKN,,0.46,274.0,WeatherDisplay:10.37,2013-05-29 19:01:00,
2013-05-29 15:06:00,80.5,67.2,29.95,WSW,243,5.8,5.8,64,0.00,BKN,,0.46,255.0,WeatherDisplay:10.37,2013-05-29 19:06:00,
2013-05-29 15:11:00,80.3,67.9,29.94,WNW,299,1.2,0.0,66,0.00,BKN,,0.46,209.0,WeatherDisplay:10.37,2013-05-29 19:11:00,
2013-05-29 15:16:00,79.9,67.5,29.94,WNW,282,1.2,1.2,66,0.00,BKN,,0.46,221.0,WeatherDisplay:10.37,2013-05-29 19:16:00,
2013-05-29 15:21:00,79.9,67.5,29.94,WNW,282,1.2,1.2,66,0.00,BKN,,0.46,206.0,WeatherDisplay:10.37,2013-05-29 19:21:00,
2013-05-29 15:26:00,79.8,69.6,29.94,WNW,282,0.0,0.0,71,0.00,BKN,,0.46,213.0,WeatherDisplay:10.37,2013-05-29 19:26:00,
2013-05-29 15:31:00,79.8,69.6,29.94,WNW,282,0.0,0.0,71,0.00,BKN,,0.46,149.0,WeatherDisplay:10.37,2013-05-29 19:31:00,
2013-05-29 15:36:00,79.6,69.4,29.94,WNW,282,0.0,0.0,71,0.00,BKN,,0.46,139.0,WeatherDisplay:10.37,2013-05-29 19:36:00,
2013-05-29 15:41:00,79.6,69.8,29.94,WNW,282,0.0,0.0,72,0.00,BKN,,0.46,141.0,WeatherDisplay:10.37,2013-05-29 19:41:00,
2013-05-29 15:46:00,79.4,70.0,29.94,WNW,282,0.0,0.0,73,0.00,BKN,,0.46,100.0,WeatherDisplay:10.37,2013-05-29 19:46:00,
2013-05-29 15:51:00,79.2,69.8,29.94,WNW,282,0.0,0.0,73,0.00,BKN,,0.46,118.0,WeatherDisplay:10.37,2013-05-29 19:51:00,
2013-05-29 15:56:00,78.8,69.4,29.93,WNW,282,0.0,0.0,73,0.00,BKN,,0.46,148.0,WeatherDisplay:10.37,2013-05-29 19:56:00,
2013-05-29 16:01:00,78.6,70.0,29.93,WNW,282,0.0,0.0,75,0.00,BKN,,0.46,225.0,WeatherDisplay:10.37,2013-05-29 20:01:00,
2013-05-29 16:06:00,78.6,70.8,29.93,WNW,282,0.0,0.0,77,0.00,BKN,,0.46,234.0,WeatherDisplay:10.37,2013-05-29 20:06:00,
2013-05-29 16:11:00,78.8,71.4,29.94,WNW,282,0.0,0.0,78,0.00,BKN,,0.46,396.0,WeatherDisplay:10.37,2013-05-29 20:11:00,
2013-05-29 16:16:00,79.0,71.9,29.94,WNW,282,0.0,0.0,79,0.00,BKN,,0.46,283.0,WeatherDisplay:10.37,2013-05-29 20:16:00,
2013-05-29 16:21:00,79.4,71.9,29.94,WNW,283,1.2,0.0,78,0.00,BKN,,0.46,163.0,WeatherDisplay:10.37,2013-05-29 20:21:00,
2013-05-29 16:26:00,79.6,71.4,29.94,WNW,282,0.0,0.0,76,0.00,BKN,,0.46,172.0,WeatherDisplay:10.37,2013-05-29 20:26:00,
2013-05-29 16:31:00,79.6,71.4,29.94,WNW,283,0.0,0.0,76,0.00,BKN,,0.46,179.0,WeatherDisplay:10.37,2013-05-29 20:31:00,
2013-05-29 16:36:00,79.6,71.0,29.94,WNW,283,0.0,0.0,75,0.00,BKN,,0.46,241.0,WeatherDisplay:10.37,2013-05-29 20:36:00,
2013-05-29 16:41:00,79.6,70.6,29.92,WNW,282,1.2,1.2,74,0.00,BKN,,0.46,139.0,WeatherDisplay:10.37,2013-05-29 20:41:00,
2013-05-29 16:46:00,79.0,68.8,29.92,North,354,4.0,4.0,71,0.00,BKN,,0.46,216.0,WeatherDisplay:10.37,2013-05-29 20:46:00,
2013-05-29 16:51:00,78.8,68.6,29.92,North,355,3.0,3.0,71,0.00,BKN,,0.46,107.0,WeatherDisplay:10.37,2013-05-29 20:51:00,
2013-05-29 16:56:00,78.6,68.8,29.91,NW,309,2.3,2.3,72,0.00,BKN,,0.46,72.0,WeatherDisplay:10.37,2013-05-29 20:56:00,
2013-05-29 17:01:00,78.3,69.3,29.91,NNW,341,3.0,3.0,74,0.00,BKN,,0.46,100.0,WeatherDisplay:10.37,2013-05-29 21:01:00,
2013-05-29 17:06:00,77.9,68.5,29.91,NW,325,3.5,3.5,73,0.00,OVC,,0.46,54.0,WeatherDisplay:10.37,2013-05-29 21:06:00,
2013-05-29 17:11:00,77.7,68.4,29.91,NW,326,1.2,1.2,73,0.00,OVC,,0.46,40.0,WeatherDisplay:10.37,2013-05-29 21:11:00,
2013-05-29 17:16:00,77.2,67.9,29.91,NW,326,1.2,1.2,73,0.00,OVC,,0.46,44.0,WeatherDisplay:10.37,2013-05-29 21:16:00,
2013-05-29 17:21:00,76.8,67.9,29.91,North,350,4.0,4.0,74,0.00,OVC,,0.46,39.0,WeatherDisplay:10.37,2013-05-29 21:21:00,
2013-05-29 17:26:00,76.7,67.8,29.91,WNW,300,3.5,3.5,74,0.00,OVC,,0.46,14.0,WeatherDisplay:10.37,2013-05-29 21:26:00,
2013-05-29 17:31:00,76.3,67.8,29.91,NNW,344,9.2,9.2,75,0.00,OVC,,0.46,5.0,WeatherDisplay:10.37,2013-05-29 21:31:00,
2013-05-29 17:36:00,75.4,67.7,29.91,NW,312,34.5,34.5,77,0.01,RA,,0.47,0.0,WeatherDisplay:10.37,2013-05-29 21:36:00,
2013-05-29 17:41:00,72.7,66.5,30.02,WSW,254,31.1,31.1,81,0.12,RA,,0.70,0.0,WeatherDisplay:10.37,2013-05-29 21:41:00,
2013-05-29 17:46:00,69.8,64.7,30.02,NW,307,3.5,3.5,84,0.48, +RA,,0.93,0.0,WeatherDisplay:10.37,2013-05-29 21:46:00,
2013-05-29 17:51:00,68.9,64.2,30.02,WNW,286,3.5,3.5,85,0.50, +RA,,0.95,5.0,WeatherDisplay:10.37,2013-05-29 21:51:00,
2013-05-29 17:56:00,68.3,64.3,29.98,SSE,164,4.0,4.0,87,0.51, +RA,,0.96,12.0,WeatherDisplay:10.37,2013-05-29 21:56:00,
2013-05-29 18:01:00,67.4,64.0,29.98,SE,145,4.0,4.0,89,0.51, +RA,,0.96,21.0,WeatherDisplay:10.37,2013-05-29 22:01:00,
2013-05-29 18:06:00,67.1,64.1,29.98,SE,146,0.0,0.0,90,0.51, +RA,,0.96,26.0,WeatherDisplay:10.37,2013-05-29 22:06:00,
2013-05-29 18:11:00,66.8,64.1,29.98,South,174,1.2,0.0,91,0.51, +RA,,0.96,42.0,WeatherDisplay:10.37,2013-05-29 22:11:00,
2013-05-29 18:16:00,66.4,63.7,29.98,SSW,196,2.3,0.0,91,0.51,OVC,,0.96,62.0,WeatherDisplay:10.37,2013-05-29 22:16:00,
2013-05-29 18:21:00,66.3,63.9,29.98,SSW,196,2.3,0.0,92,0.51,OVC,,0.96,213.0,WeatherDisplay:10.37,2013-05-29 22:21:00,
2013-05-29 18:26:00,66.3,63.9,29.99,SSE,158,3.5,3.5,92,0.51,OVC,,0.96,239.0,WeatherDisplay:10.37,2013-05-29 22:26:00,
2013-05-29 18:31:00,66.4,64.0,29.99,SSE,149,4.6,4.6,92,0.51,OVC,,0.96,264.0,WeatherDisplay:10.37,2013-05-29 22:31:00,
2013-05-29 18:36:00,66.3,63.9,29.99,SSE,167,6.0,6.0,92,0.50,OVC,,0.96,269.0,WeatherDisplay:10.37,2013-05-29 22:36:00,
2013-05-29 18:41:00,66.4,64.0,29.98,SSE,160,4.0,4.0,92,0.39,OVC,,0.96,345.0,WeatherDisplay:10.37,2013-05-29 22:41:00,
2013-05-29 18:46:00,66.6,64.2,29.98,SE,141,4.0,4.0,92,0.05,OVC,,0.96,343.0,WeatherDisplay:10.37,2013-05-29 22:46:00,
2013-05-29 18:51:00,66.6,64.2,29.98,SSE,147,3.5,3.5,92,0.01,OVC,,0.96,308.0,WeatherDisplay:10.37,2013-05-29 22:51:00,
2013-05-29 18:56:00,66.8,64.7,29.98,SSE,156,4.0,4.0,93,0.00,OVC,,0.96,220.0,WeatherDisplay:10.37,2013-05-29 22:56:00,
2013-05-29 19:02:00,66.9,64.8,29.98,SSE,156,1.2,0.0,93,0.00,OVC,,0.96,125.0,WeatherDisplay:10.37,2013-05-29 23:02:00,
2013-05-29 19:07:00,67.1,65.0,29.98,SSE,160,2.3,0.0,93,0.00,OVC,,0.96,105.0,WeatherDisplay:10.37,2013-05-29 23:07:00,
2013-05-29 19:12:00,67.1,65.0,29.97,SSE,160,3.0,3.0,93,0.00,OVC,,0.96,90.0,WeatherDisplay:10.37,2013-05-29 23:12:00,
2013-05-29 19:17:00,66.9,64.8,29.97,SSE,156,3.0,3.0,93,0.00,FEW,,0.96,79.0,WeatherDisplay:10.37,2013-05-29 23:17:00,
2013-05-29 19:22:00,66.9,64.8,29.97,SSE,153,5.0,5.0,93,0.00,FEW,,0.96,69.0,WeatherDisplay:10.37,2013-05-29 23:22:00,
2013-05-29 19:27:00,66.9,64.8,29.97,SSE,149,4.0,4.0,93,0.00,FEW,,0.96,62.0,WeatherDisplay:10.37,2013-05-29 23:27:00,
2013-05-29 19:32:00,66.9,64.8,29.97,SSE,156,5.0,5.0,93,0.00,FEW,,0.96,54.0,WeatherDisplay:10.37,2013-05-29 23:32:00,
2013-05-29 19:37:00,66.9,64.8,29.97,SSE,163,1.2,1.2,93,0.00,FEW,,0.96,47.0,WeatherDisplay:10.37,2013-05-29 23:37:00,
2013-05-29 19:42:00,66.9,64.8,29.97,SSE,163,3.5,3.5,93,0.00,FEW,,0.96,42.0,WeatherDisplay:10.37,2013-05-29 23:42:00,
2013-05-29 19:47:00,66.8,64.7,29.97,SSE,153,1.2,1.2,93,0.00,FEW,,0.96,35.0,WeatherDisplay:10.37,2013-05-29 23:47:00,
2013-05-29 19:52:00,66.6,64.5,29.97,SSE,154,2.0,2.0,93,0.00,FEW,,0.96,32.0,WeatherDisplay:10.37,2013-05-29 23:52:00,
2013-05-29 19:57:00,66.4,64.3,29.98,SSE,155,1.2,1.2,93,0.00,FEW,,0.96,28.0,WeatherDisplay:10.37,2013-05-29 23:57:00,
2013-05-29 20:02:00,66.3,64.2,29.98,SSE,155,1.0,1.0,93,0.00,FEW,,0.96,25.0,WeatherDisplay:10.37,2013-05-30 00:02:00,
2013-05-29 20:07:00,66.1,64.0,29.98,SSE,155,1.2,1.2,93,0.00,FEW,,0.96,19.0,WeatherDisplay:10.37,2013-05-30 00:07:00,
2013-05-29 20:12:00,66.0,63.9,29.98,ENE,68,2.0,2.0,93,0.00,FEW,,0.96,14.0,WeatherDisplay:10.37,2013-05-30 00:12:00,
2013-05-29 20:17:00,65.8,63.7,29.98,ENE,68,0.0,0.0,93,0.00,FEW,,0.96,14.0,WeatherDisplay:10.37,2013-05-30 00:17:00,
2013-05-29 20:22:00,65.6,63.8,29.98,ENE,68,2.3,2.3,94,0.00,FEW,,0.96,9.0,WeatherDisplay:10.37,2013-05-30 00:22:00,
2013-05-29 20:27:00,65.5,63.7,29.98,ENE,68,1.2,1.2,94,0.00,FEW,,0.96,7.0,WeatherDisplay:10.37,2013-05-30 00:27:00,
2013-05-29 20:32:00,65.5,63.7,29.98,SE,138,4.0,4.0,94,0.00,BKN,,0.96,0.0,WeatherDisplay:10.37,2013-05-30 00:32:00,
2013-05-29 20:37:00,65.3,63.5,29.98,SE,127,4.0,4.0,94,0.00,BKN,,0.96,0.0,WeatherDisplay:10.37,2013-05-30 00:37:00,
2013-05-29 20:42:00,65.2,63.4,29.99,SE,139,4.0,4.0,94,0.00,BKN,,0.96,0.0,WeatherDisplay:10.37,2013-05-30 00:42:00,
2013-05-29 20:47:00,65.0,63.2,29.99,ESE,122,3.5,3.5,94,0.00,BKN,,0.96,0.0,WeatherDisplay:10.37,2013-05-30 00:47:00,
2013-05-29 20:52:00,64.8,63.0,29.99,SE,130,4.0,4.0,94,0.00,BKN,,0.96,0.0,WeatherDisplay:10.37,2013-05-30 00:52:00,
2013-05-29 20:57:00,64.8,63.0,29.99,ESE,106,4.0,4.0,94,0.00,BKN,,0.96,0.0,WeatherDisplay:10.37,2013-05-30 00:57:00,
2013-05-29 21:02:00,64.5,62.7,29.99,SE,125,4.0,4.0,94,0.00,SCT,,0.96,0.0,WeatherDisplay:10.37,2013-05-30 01:02:00,
2013-05-29 21:07:00,64.5,62.7,29.99,SE,146,3.0,3.0,94,0.00,SCT,,0.96,0.0,WeatherDisplay:10.37,2013-05-30 01:07:00,
2013-05-29 21:12:00,64.2,62.4,29.99,SSE,148,3.5,3.5,94,0.00,FEW,,0.96,0.0,WeatherDisplay:10.37,2013-05-30 01:12:00,
2013-05-29 21:17:00,63.9,62.1,29.99,SE,138,3.5,3.5,94,0.00,FEW,,0.96,0.0,WeatherDisplay:10.37,2013-05-30 01:17:00,
2013-05-29 21:22:00,63.5,61.7,29.99,SE,139,1.2,0.0,94,0.00,FEW,,0.96,0.0,WeatherDisplay:10.37,2013-05-30 01:22:00,
2013-05-29 21:27:00,63.4,61.6,29.99,SE,139,1.2,1.2,94,0.00,FEW,,0.96,0.0,WeatherDisplay:10.37,2013-05-30 01:27:00,
2013-05-29 21:32:00,63.1,61.3,29.99,SE,139,0.0,0.0,94,0.00,FEW,,0.96,0.0,WeatherDisplay:10.37,2013-05-30 01:32:00,
2013-05-29 21:37:00,62.9,61.4,29.99,SE,139,2.3,2.3,95,0.00,FEW,,0.96,0.0,WeatherDisplay:10.37,2013-05-30 01:37:00,
2013-05-29 21:42:00,63.1,61.6,30.00,SE,139,1.2,1.2,95,0.00,FEW,,0.96,0.0,WeatherDisplay:10.37,2013-05-30 01:42:00,
2013-05-29 21:47:00,63.1,61.6,30.00,SE,139,0.0,0.0,95,0.00,FEW,,0.96,0.0,WeatherDisplay:10.37,2013-05-30 01:47:00,
2013-05-29 21:52:00,63.1,61.6,30.00,SE,137,0.0,0.0,95,0.00,FEW,,0.96,0.0,WeatherDisplay:10.37,2013-05-30 01:52:00,
2013-05-29 21:57:00,62.7,61.2,30.01,SE,137,1.2,1.2,95,0.00,FEW,,0.96,0.0,WeatherDisplay:10.37,2013-05-30 01:57:00,
2013-05-29 22:02:00,62.7,61.2,30.01,SE,137,0.0,0.0,95,0.00,FEW,,0.96,0.0,WeatherDisplay:10.37,2013-05-30 02:02:00,
2013-05-29 22:07:00,62.4,60.9,30.01,SE,137,1.2,1.2,95,0.00,FEW,,0.96,0.0,WeatherDisplay:10.37,2013-05-30 02:07:00,
2013-05-29 22:12:00,62.4,60.9,30.01,SE,137,1.0,0.0,95,0.00,CLR,,0.96,0.0,WeatherDisplay:10.37,2013-05-30 02:12:00,
2013-05-29 22:17:00,62.4,60.9,30.01,SE,137,1.2,0.0,95,0.00,CLR,,0.96,0.0,WeatherDisplay:10.37,2013-05-30 02:17:00,
2013-05-29 22:22:00,62.4,60.9,30.01,SE,137,1.2,0.0,95,0.00,CLR,,0.96,0.0,WeatherDisplay:10.37,2013-05-30 02:22:00,
2013-05-29 22:27:00,62.4,60.9,30.01,SE,137,1.0,0.0,95,0.00,CLR,,0.96,0.0,WeatherDisplay:10.37,2013-05-30 02:27:00,
2013-05-29 22:32:00,62.1,60.7,30.01,SE,137,0.0,0.0,95,0.00,CLR,,0.96,0.0,WeatherDisplay:10.37,2013-05-30 02:32:00,
2013-05-29 22:37:00,62.1,60.7,30.01,SE,139,1.2,1.2,95,0.00,CLR,,0.96,0.0,WeatherDisplay:10.37,2013-05-30 02:37:00,
2013-05-29 22:42:00,62.3,61.1,30.01,SE,139,1.2,1.2,96,0.00,CLR,,0.96,0.0,WeatherDisplay:10.37,2013-05-30 02:42:00,
2013-05-29 22:47:00,62.3,61.1,30.01,SE,139,1.0,0.0,96,0.00,CLR,,0.96,0.0,WeatherDisplay:10.37,2013-05-30 02:47:00,
2013-05-29 22:52:00,62.1,60.7,30.01,SE,141,3.5,3.5,95,0.00,CLR,,0.96,0.0,WeatherDisplay:10.37,2013-05-30 02:52:00,
2013-05-29 22:57:00,62.1,60.9,30.02,SE,137,2.3,2.3,96,0.00,CLR,,0.96,0.0,WeatherDisplay:10.37,2013-05-30 02:57:00,
2013-05-29 23:02:00,62.3,61.1,30.02,SE,141,3.5,3.5,96,0.00,CLR,,0.96,0.0,WeatherDisplay:10.37,2013-05-30 03:02:00,
2013-05-29 23:07:00,62.4,61.2,30.02,SE,144,3.5,3.5,96,0.00,CLR,,0.96,0.0,WeatherDisplay:10.37,2013-05-30 03:07:00,
2013-05-29 23:12:00,62.3,61.1,30.01,SE,144,1.2,1.2,96,0.00,CLR,,0.96,0.0,WeatherDisplay:10.37,2013-05-30 03:12:00,
2013-05-29 23:17:00,62.3,61.1,30.01,SE,144,1.2,1.2,96,0.00,CLR,,0.96,0.0,WeatherDisplay:10.37,2013-05-30 03:17:00,
2013-05-29 23:22:00,62.1,60.9,30.01,SE,144,0.0,0.0,96,0.00,FEW,,0.96,0.0,WeatherDisplay:10.37,2013-05-30 03:22:00,
2013-05-29 23:27:00,61.8,60.6,30.02,SE,144,0.0,0.0,96,0.00,FEW,,0.96,0.0,WeatherDisplay:10.37,2013-05-30 03:27:00,
2013-05-29 23:32:00,61.6,60.2,30.02,SE,144,0.0,0.0,95,0.00,FEW,,0.96,0.0,WeatherDisplay:10.37,2013-05-30 03:32:00,
2013-05-29 23:37:00,61.2,60.1,30.02,SE,144,0.0,0.0,96,0.00,FEW,,0.96,0.0,WeatherDisplay:10.37,2013-05-30 03:37:00,
2013-05-29 23:42:00,61.0,59.9,30.02,SE,144,0.0,0.0,96,0.00,FEW,,0.96,0.0,WeatherDisplay:10.37,2013-05-30 03:42:00,
2013-05-29 23:47:00,60.9,59.8,30.02,SE,144,0.0,0.0,96,0.00,FEW,,0.96,0.0,WeatherDisplay:10.37,2013-05-30 03:47:00,
2013-05-29 23:52:00,60.7,59.6,30.02,SE,144,0.0,0.0,96,0.00,FEW,,0.96,0.0,WeatherDisplay:10.37,2013-05-30 03:52:00,
2013-05-29 23:57:00,60.4,59.3,30.03,SE,144,0.0,0.0,96,0.00,FEW,,0.96,0.0,WeatherDisplay:10.37,2013-05-30 03:57:00,